Time;durP1;ratioP1;P1;durP2;ratioP2;P2;SDS_P1;SDS_P2;PMS_P1;PMS_P2;Temp;Humidity;BMP_temperature;BMP_pressure;BME280_temperature;BME280_humidity;BME280_pressure;Samples;Min_cycle;Max_cycle;Signal;HPM_P1;HPM_P2
2021/10/27 00:00:51;;;;;;;;;;;22.20;58.70;;;;;;4247005;27;19927;-68
2021/10/27 00:02:54;;;;;;;;;;;22.20;58.60;;;;;;4248881;27;19919;-69
2021/10/27 00:04:57;;;;;;;;;;;22.30;58.70;;;;;;4262438;27;19944;-63
2021/10/27 00:07:02;;;;;;;;;;;22.20;59.30;;;;;;4257990;27;19919;-70
2021/10/27 00:09:05;;;;;;;;;;;22.20;58.70;;;;;;4250650;27;19927;-66
2021/10/27 00:11:07;;;;;;;;;;;22.20;58.60;;;;;;4246635;27;19919;-67
2021/10/27 00:13:10;;;;;;;;;;;22.20;58.70;;;;;;4258843;27;20391;-67
2021/10/27 00:15:14;;;;;;;;;;;22.30;58.80;;;;;;4247799;27;19927;-72
2021/10/27 00:17:17;;;;;;;;;;;22.20;58.70;;;;;;4252197;27;19922;-68
2021/10/27 00:19:20;;;;;;;;;;;22.20;58.80;;;;;;4253837;27;19927;-69
2021/10/27 00:21:23;;;;;;;;;;;22.20;58.80;;;;;;4261654;27;19923;-72
2021/10/27 00:23:27;;;;;;;;;;;22.20;58.70;;;;;;4250988;27;20325;-68
2021/10/27 00:25:29;;;;;;;;;;;22.20;58.70;;;;;;4262447;27;19923;-64
2021/10/27 00:27:32;;;;;;;;;;;22.20;58.70;;;;;;4256798;27;19919;-69
2021/10/27 00:29:35;;;;;;;;;;;22.20;58.80;;;;;;4255415;27;19919;-69
2021/10/27 00:31:37;;;;;;;;;;;22.20;58.80;;;;;;4262264;27;19927;-68
2021/10/27 00:33:40;;;;;;;;;;;22.20;58.80;;;;;;4248897;27;19931;-66
2021/10/27 00:35:43;;;;;;;;;;;22.10;58.90;;;;;;4245404;28;19923;-74
2021/10/27 00:37:46;;;;;;;;;;;22.10;58.70;;;;;;4250043;27;20382;-70
2021/10/27 00:39:50;;;;;;;;;;;22.10;59.00;;;;;;4253178;27;19923;-65
2021/10/27 00:41:53;;;;;;;;;;;22.10;58.90;;;;;;4245520;27;19919;-72
2021/10/27 00:43:56;;;;;;;;;;;22.10;58.90;;;;;;4261155;27;19931;-69
2021/10/27 00:45:58;;;;;;;;;;;22.10;58.80;;;;;;4248511;27;19975;-71
2021/10/27 00:48:01;;;;;;;;;;;22.10;58.90;;;;;;4252042;27;19923;-69
2021/10/27 00:50:04;;;;;;;;;;;22.10;58.90;;;;;;4257278;27;19927;-70
2021/10/27 00:52:10;;;;;;;;;;;22.10;58.90;;;;;;4248316;27;19972;-71
2021/10/27 00:54:12;;;;;;;;;;;22.10;58.90;;;;;;4260964;27;19920;-70
2021/10/27 00:56:19;;;;;;;;;;;22.10;59.00;;;;;;4265253;27;20403;-66
2021/10/27 00:58:21;;;;;;;;;;;22.00;58.90;;;;;;4260860;27;19923;-70
2021/10/27 01:00:24;;;;;;;;;;;22.00;58.90;;;;;;4256753;27;19922;-63
2021/10/27 01:02:27;;;;;;;;;;;22.10;58.90;;;;;;4254209;27;20292;-66
2021/10/27 01:04:30;;;;;;;;;;;22.00;58.90;;;;;;4253452;27;19923;-64
2021/10/27 01:06:33;;;;;;;;;;;22.00;58.80;;;;;;4264939;27;20427;-74
2021/10/27 01:08:36;;;;;;;;;;;22.00;58.90;;;;;;4260511;27;19927;-67
2021/10/27 01:10:40;;;;;;;;;;;22.00;58.90;;;;;;4257376;27;19919;-71
2021/10/27 01:12:46;;;;;;;;;;;22.00;59.00;;;;;;4247820;27;19923;-63
2021/10/27 01:14:48;;;;;;;;;;;22.00;59.10;;;;;;4262972;27;20489;-66
2021/10/27 01:16:51;;;;;;;;;;;22.00;59.00;;;;;;4230314;27;19931;-63
2021/10/27 01:18:55;;;;;;;;;;;22.00;59.00;;;;;;4251982;27;20371;-71
2021/10/27 01:21:14;;;;;;;;;;;22.00;59.00;;;;;;4264706;27;19972;-69
2021/10/27 01:23:17;;;;;;;;;;;22.00;59.00;;;;;;4264691;27;19919;-68
2021/10/27 01:25:20;;;;;;;;;;;22.00;59.00;;;;;;4251959;27;19920;-71
2021/10/27 01:27:23;;;;;;;;;;;21.90;58.90;;;;;;4264628;27;19972;-66
2021/10/27 01:29:25;;;;;;;;;;;22.00;59.00;;;;;;4260187;27;19966;-70
2021/10/27 01:31:28;;;;;;;;;;;21.90;59.00;;;;;;4238193;27;19923;-63
2021/10/27 01:33:32;;;;;;;;;;;22.00;59.00;;;;;;4264847;27;19923;-66
2021/10/27 01:35:34;;;;;;;;;;;21.90;59.00;;;;;;4251622;27;19919;-71
2021/10/27 01:37:39;;;;;;;;;;;21.90;59.10;;;;;;4264519;27;19923;-71
2021/10/27 01:39:41;;;;;;;;;;;21.90;59.00;;;;;;4260986;27;19965;-64
2021/10/27 01:41:44;;;;;;;;;;;21.90;59.10;;;;;;4255430;27;20382;-64
2021/10/27 01:43:48;;;;;;;;;;;21.90;59.10;;;;;;4264566;27;20000;-63
2021/10/27 01:45:51;;;;;;;;;;;21.90;59.00;;;;;;4252290;27;19919;-71
2021/10/27 01:47:53;;;;;;;;;;;21.90;59.10;;;;;;4263951;27;19926;-62
2021/10/27 01:49:56;;;;;;;;;;;21.90;59.10;;;;;;4261647;27;20428;-69
2021/10/27 01:51:59;;;;;;;;;;;21.90;59.10;;;;;;4254388;27;19923;-72
2021/10/27 01:54:03;;;;;;;;;;;21.90;59.10;;;;;;4264147;27;20500;-66
2021/10/27 01:56:06;;;;;;;;;;;21.90;59.10;;;;;;4253019;27;19923;-66
2021/10/27 01:58:09;;;;;;;;;;;21.80;59.10;;;;;;4262887;27;19919;-67
2021/10/27 02:00:12;;;;;;;;;;;21.80;59.00;;;;;;4262222;27;19983;-63
2021/10/27 02:02:15;;;;;;;;;;;21.80;59.10;;;;;;4253595;27;19919;-66
2021/10/27 02:04:18;;;;;;;;;;;21.90;59.10;;;;;;4245853;27;19919;-68
2021/10/27 02:06:20;;;;;;;;;;;21.80;59.10;;;;;;4259793;27;19923;-70
2021/10/27 02:08:23;;;;;;;;;;;21.80;59.20;;;;;;4249451;27;19920;-68
2021/10/27 02:10:27;;;;;;;;;;;21.80;59.10;;;;;;4248368;27;19924;-63
2021/10/27 02:12:30;;;;;;;;;;;21.80;59.20;;;;;;4234142;27;19919;-65
2021/10/27 02:14:33;;;;;;;;;;;21.80;59.20;;;;;;4236504;27;19924;-67
2021/10/27 02:16:36;;;;;;;;;;;21.80;59.20;;;;;;4251178;27;20016;-70
2021/10/27 02:18:38;;;;;;;;;;;21.80;59.20;;;;;;4261063;27;19971;-64
2021/10/27 02:20:42;;;;;;;;;;;21.80;59.20;;;;;;4260236;27;20353;-70
2021/10/27 02:22:44;;;;;;;;;;;21.80;59.20;;;;;;4239796;27;19919;-69
2021/10/27 02:24:47;;;;;;;;;;;21.70;59.20;;;;;;4247002;27;19919;-67
2021/10/27 02:26:51;;;;;;;;;;;21.80;59.20;;;;;;4251056;27;20307;-71
2021/10/27 02:28:54;;;;;;;;;;;21.70;59.20;;;;;;4259684;27;20375;-70
2021/10/27 02:30:56;;;;;;;;;;;21.70;59.20;;;;;;4260501;27;20462;-67
2021/10/27 02:33:00;;;;;;;;;;;21.70;59.30;;;;;;4262013;27;19941;-71
2021/10/27 02:35:03;;;;;;;;;;;21.70;59.30;;;;;;4263692;27;19935;-66
2021/10/27 02:37:06;;;;;;;;;;;21.70;59.20;;;;;;4255501;27;20459;-63
2021/10/27 02:39:10;;;;;;;;;;;21.70;59.30;;;;;;4240831;27;20333;-71
2021/10/27 02:41:13;;;;;;;;;;;21.70;59.30;;;;;;4261919;27;19979;-63
2021/10/27 02:43:17;;;;;;;;;;;21.70;59.30;;;;;;4251879;27;19919;-64
2021/10/27 02:45:20;;;;;;;;;;;21.70;59.30;;;;;;4263747;27;20437;-66
2021/10/27 02:47:23;;;;;;;;;;;21.70;59.90;;;;;;4255901;27;20401;-69
2021/10/27 02:49:25;;;;;;;;;;;21.70;59.40;;;;;;4258455;27;20271;-69
2021/10/27 02:51:28;;;;;;;;;;;21.60;59.30;;;;;;4261674;27;19919;-65
2021/10/27 02:53:31;;;;;;;;;;;21.70;59.30;;;;;;4257756;27;19926;-71
2021/10/27 02:55:33;;;;;;;;;;;21.60;59.20;;;;;;4246508;27;19919;-71
2021/10/27 02:57:36;;;;;;;;;;;21.70;59.30;;;;;;4252263;27;19922;-64
2021/10/27 02:59:40;;;;;;;;;;;21.60;59.30;;;;;;4252633;27;19923;-69
2021/10/27 03:01:43;;;;;;;;;;;21.70;59.40;;;;;;4247701;27;19923;-69
2021/10/27 03:03:46;;;;;;;;;;;21.60;59.40;;;;;;4259590;27;19923;-70
2021/10/27 03:05:49;;;;;;;;;;;21.60;59.40;;;;;;4263065;27;19919;-71
2021/10/27 03:07:52;;;;;;;;;;;21.60;59.30;;;;;;4257593;27;19972;-71
2021/10/27 03:09:55;;;;;;;;;;;21.60;59.40;;;;;;4256407;27;19930;-71
2021/10/27 03:11:57;;;;;;;;;;;21.60;59.40;;;;;;4262654;27;20308;-72
2021/10/27 03:14:00;;;;;;;;;;;21.60;59.40;;;;;;4249809;27;20262;-67
2021/10/27 03:16:04;;;;;;;;;;;21.60;59.50;;;;;;4246206;27;19919;-66
2021/10/27 03:18:07;;;;;;;;;;;21.60;59.40;;;;;;4250898;27;19930;-63
2021/10/27 03:20:10;;;;;;;;;;;21.60;59.60;;;;;;4255938;27;20345;-65
2021/10/27 03:22:13;;;;;;;;;;;21.60;59.40;;;;;;4263029;27;19918;-67
2021/10/27 03:24:16;;;;;;;;;;;21.60;59.40;;;;;;4251467;27;20283;-66
2021/10/27 03:26:19;;;;;;;;;;;21.50;59.40;;;;;;4263049;27;19919;-65
2021/10/27 03:28:21;;;;;;;;;;;21.50;59.40;;;;;;4258527;27;19919;-68
2021/10/27 03:30:24;;;;;;;;;;;21.60;59.40;;;;;;4254473;27;19999;-66
2021/10/27 03:32:28;;;;;;;;;;;21.50;59.50;;;;;;4262795;27;19919;-69
2021/10/27 03:34:31;;;;;;;;;;;21.50;59.60;;;;;;4250310;27;19919;-68
2021/10/27 03:36:34;;;;;;;;;;;21.60;59.50;;;;;;4263087;27;19919;-71
2021/10/27 03:38:36;;;;;;;;;;;21.60;59.60;;;;;;4259490;27;19919;-65
2021/10/27 03:40:41;;;;;;;;;;;21.50;59.60;;;;;;4253641;27;19919;-70
2021/10/27 03:42:44;;;;;;;;;;;21.50;59.40;;;;;;4263095;27;20007;-70
2021/10/27 03:44:47;;;;;;;;;;;21.50;59.60;;;;;;4250804;27;19997;-73
2021/10/27 03:46:51;;;;;;;;;;;21.50;59.50;;;;;;4262017;27;19972;-68
2021/10/27 03:48:55;;;;;;;;;;;21.50;59.60;;;;;;4259761;27;19923;-73
2021/10/27 03:50:58;;;;;;;;;;;21.50;59.50;;;;;;4253223;27;20378;-66
2021/10/27 03:53:00;;;;;;;;;;;21.50;59.60;;;;;;4263154;27;19927;-73
2021/10/27 03:55:03;;;;;;;;;;;21.50;59.60;;;;;;4251534;27;19919;-65
2021/10/27 03:57:06;;;;;;;;;;;21.50;59.60;;;;;;4261254;27;19919;-70
2021/10/27 03:59:09;;;;;;;;;;;21.50;59.60;;;;;;4242277;28;19981;-73
2021/10/27 04:01:11;;;;;;;;;;;21.50;59.60;;;;;;4251782;27;20305;-69
2021/10/27 04:03:19;;;;;;;;;;;21.50;59.70;;;;;;4262995;27;20458;-70
2021/10/27 04:05:23;;;;;;;;;;;21.40;59.50;;;;;;4258482;27;19923;-64
2021/10/27 04:07:25;;;;;;;;;;;21.40;59.60;;;;;;4247426;27;20020;-64
2021/10/27 04:09:28;;;;;;;;;;;21.40;59.60;;;;;;4247306;27;19965;-65
2021/10/27 04:11:31;;;;;;;;;;;21.40;59.60;;;;;;4256253;27;19919;-73
2021/10/27 04:13:35;;;;;;;;;;;21.40;59.60;;;;;;4245733;27;19925;-71
2021/10/27 04:15:37;;;;;;;;;;;21.40;59.60;;;;;;4249764;27;19964;-64
2021/10/27 04:17:40;;;;;;;;;;;21.40;59.60;;;;;;4263784;27;19922;-70
2021/10/27 04:19:43;;;;;;;;;;;21.40;59.70;;;;;;4263823;27;19919;-67
2021/10/27 04:21:47;;;;;;;;;;;21.40;59.70;;;;;;4241355;27;19965;-63
2021/10/27 04:23:50;;;;;;;;;;;21.40;59.70;;;;;;4249019;27;19980;-70
2021/10/27 04:25:53;;;;;;;;;;;21.40;59.70;;;;;;4258704;27;20382;-71
2021/10/27 04:27:55;;;;;;;;;;;21.40;59.70;;;;;;4251998;27;19919;-65
2021/10/27 04:29:58;;;;;;;;;;;21.40;59.70;;;;;;4249937;27;19926;-67
2021/10/27 04:32:01;;;;;;;;;;;21.40;59.80;;;;;;4260097;27;19923;-65
2021/10/27 04:34:03;;;;;;;;;;;21.40;59.70;;;;;;4248927;27;19949;-70
2021/10/27 04:36:06;;;;;;;;;;;21.30;59.70;;;;;;4257003;27;19986;-66
2021/10/27 04:38:10;;;;;;;;;;;21.30;59.70;;;;;;4253159;27;19984;-73
2021/10/27 04:40:14;;;;;;;;;;;21.30;59.80;;;;;;4250038;27;19992;-73
2021/10/27 04:42:16;;;;;;;;;;;21.40;59.90;;;;;;4260309;27;20312;-73
2021/10/27 04:44:19;;;;;;;;;;;21.30;59.70;;;;;;4248658;27;19923;-68
2021/10/27 04:46:23;;;;;;;;;;;21.30;59.80;;;;;;4256080;27;19919;-70
2021/10/27 04:48:25;;;;;;;;;;;21.30;59.80;;;;;;4235447;27;19965;-68
2021/10/27 04:50:28;;;;;;;;;;;21.30;59.80;;;;;;4250033;27;20324;-68
2021/10/27 04:52:31;;;;;;;;;;;21.30;59.80;;;;;;4260232;27;19923;-68
2021/10/27 04:54:35;;;;;;;;;;;21.30;59.80;;;;;;4248850;27;20287;-65
2021/10/27 04:56:38;;;;;;;;;;;21.30;60.00;;;;;;4255582;27;19919;-71
2021/10/27 04:58:40;;;;;;;;;;;21.20;59.80;;;;;;4254058;27;19923;-65
2021/10/27 05:00:44;;;;;;;;;;;21.30;59.80;;;;;;4249947;27;20317;-68
2021/10/27 05:02:46;;;;;;;;;;;21.30;59.80;;;;;;4262293;27;19922;-74
2021/10/27 05:04:49;;;;;;;;;;;21.30;59.80;;;;;;4265723;27;19930;-74
2021/10/27 05:06:52;;;;;;;;;;;21.30;59.80;;;;;;4259558;27;20459;-69
2021/10/27 05:08:54;;;;;;;;;;;21.30;59.80;;;;;;4258902;27;19980;-69
2021/10/27 05:10:59;;;;;;;;;;;21.20;59.80;;;;;;4264934;27;19979;-74
2021/10/27 05:13:02;;;;;;;;;;;21.20;59.90;;;;;;4252160;27;20481;-73
2021/10/27 05:15:05;;;;;;;;;;;21.20;59.80;;;;;;4248359;27;19920;-66
2021/10/27 05:17:15;;;;;;;;;;;21.20;59.90;;;;;;4252456;27;20428;-67
2021/10/27 05:19:18;;;;;;;;;;;21.20;59.90;;;;;;4258884;27;19919;-66
2021/10/27 05:21:20;;;;;;;;;;;21.20;59.80;;;;;;4264027;27;20350;-65
2021/10/27 05:23:23;;;;;;;;;;;21.20;59.90;;;;;;4253389;27;19919;-70
2021/10/27 05:25:26;;;;;;;;;;;21.20;59.80;;;;;;4265409;27;19938;-66
2021/10/27 05:27:31;;;;;;;;;;;21.20;59.80;;;;;;4259287;27;19919;-64
2021/10/27 05:29:33;;;;;;;;;;;21.20;59.80;;;;;;4239501;27;20290;-69
2021/10/27 05:31:37;;;;;;;;;;;21.20;59.90;;;;;;4264788;27;19919;-64
2021/10/27 05:33:39;;;;;;;;;;;21.20;59.90;;;;;;4252370;27;20124;-63
2021/10/27 05:35:42;;;;;;;;;;;21.20;59.90;;;;;;4265008;27;19997;-72
2021/10/27 05:37:45;;;;;;;;;;;21.20;59.80;;;;;;4260230;27;19976;-66
2021/10/27 05:39:47;;;;;;;;;;;21.10;59.90;;;;;;4256837;27;19964;-65
2021/10/27 05:41:50;;;;;;;;;;;21.20;59.90;;;;;;4265838;27;20300;-66
2021/10/27 05:43:54;;;;;;;;;;;21.20;60.00;;;;;;4260499;27;19980;-67
2021/10/27 05:45:57;;;;;;;;;;;21.10;59.80;;;;;;4247917;27;19980;-68
2021/10/27 05:48:02;;;;;;;;;;;21.10;59.90;;;;;;4251217;27;19927;-67
2021/10/27 05:56:35;;;;;;;;;;;21.10;59.90;;;;;;4247752;27;19919;-66
2021/10/27 05:58:38;;;;;;;;;;;21.10;59.90;;;;;;4253395;27;19919;-67
2021/10/27 06:00:44;;;;;;;;;;;21.10;59.90;;;;;;4253532;27;20336;-68
2021/10/27 06:02:47;;;;;;;;;;;21.10;60.00;;;;;;4247459;27;19923;-67
2021/10/27 06:04:50;;;;;;;;;;;21.10;59.90;;;;;;4253011;27;19924;-72
2021/10/27 06:06:52;;;;;;;;;;;21.10;59.90;;;;;;4264610;27;19944;-67
2021/10/27 06:08:58;;;;;;;;;;;21.10;59.90;;;;;;4258826;27;19964;-73
2021/10/27 06:11:10;;;;;;;;;;;21.10;59.90;;;;;;4258363;27;20414;-65
2021/10/27 06:13:15;;;;;;;;;;;21.10;60.00;;;;;;4262132;27;20069;-69
2021/10/27 06:15:19;;;;;;;;;;;21.10;60.00;;;;;;4250144;27;20438;-65
2021/10/27 06:17:23;;;;;;;;;;;21.00;59.90;;;;;;4264617;27;20438;-67
2021/10/27 06:19:26;;;;;;;;;;;21.00;59.90;;;;;;4258777;27;19919;-64
2021/10/27 06:21:28;;;;;;;;;;;21.00;59.90;;;;;;4264371;27;20362;-65
2021/10/27 06:23:31;;;;;;;;;;;21.00;60.00;;;;;;4262788;27;19926;-69
2021/10/27 06:25:34;;;;;;;;;;;21.00;59.90;;;;;;4252738;27;20029;-63
2021/10/27 06:27:38;;;;;;;;;;;21.00;59.90;;;;;;4264210;27;19971;-67
2021/10/27 06:29:45;;;;;;;;;;;21.00;59.90;;;;;;4257458;27;19995;-65
2021/10/27 06:31:54;;;;;;;;;;;21.00;59.90;;;;;;4258451;27;19919;-71
2021/10/27 06:36:26;;;;;;;;;;;21.00;60.00;;;;;;4252813;27;19948;-73
2021/10/27 06:38:49;;;;;;;;;;;21.00;59.90;;;;;;4264420;27;19945;-64
2021/10/27 06:47:56;;;;;;;;;;;21.00;59.90;;;;;;4263035;27;19918;-66
2021/10/27 06:50:00;;;;;;;;;;;20.90;59.90;;;;;;4260642;27;19923;-74
2021/10/27 06:52:03;;;;;;;;;;;20.90;60.00;;;;;;4254288;27;20243;-71
2021/10/27 06:54:06;;;;;;;;;;;20.90;60.00;;;;;;4263709;27;19926;-74
2021/10/27 06:56:11;;;;;;;;;;;20.90;59.90;;;;;;4251715;27;19920;-68
2021/10/27 06:58:18;;;;;;;;;;;20.90;60.00;;;;;;4262936;27;19919;-68
2021/10/27 07:00:29;;;;;;;;;;;20.90;59.90;;;;;;4260257;27;20488;-69
2021/10/27 07:02:53;;;;;;;;;;;20.90;59.90;;;;;;4255525;27;19945;-65
2021/10/27 07:05:06;;;;;;;;;;;20.90;59.90;;;;;;4262512;27;19919;-69
2021/10/27 07:16:15;;;;;;;;;;;20.90;59.90;;;;;;4250324;27;19926;-67
2021/10/27 07:18:18;;;;;;;;;;;20.90;59.90;;;;;;4257703;27;19925;-67
2021/10/27 07:20:24;;;;;;;;;;;20.90;59.90;;;;;;4262633;27;19919;-70
2021/10/27 07:22:28;;;;;;;;;;;20.90;60.00;;;;;;4257807;27;20367;-66
2021/10/27 07:24:30;;;;;;;;;;;20.90;59.90;;;;;;4245990;27;20337;-69
2021/10/27 07:26:33;;;;;;;;;;;20.90;59.90;;;;;;4251320;27;19923;-66
2021/10/27 07:28:36;;;;;;;;;;;20.90;60.00;;;;;;4256795;27;19918;-67
2021/10/27 07:30:38;;;;;;;;;;;20.90;59.90;;;;;;4262568;27;20321;-72
2021/10/27 07:32:41;;;;;;;;;;;20.90;59.90;;;;;;4250924;27;19964;-66
2021/10/27 07:34:51;;;;;;;;;;;20.90;60.50;;;;;;4263393;27;19963;-70
2021/10/27 07:41:37;;;;;;;;;;;20.80;59.90;;;;;;4261550;27;19928;-65
2021/10/27 07:43:42;;;;;;;;;;;20.80;59.90;;;;;;4256109;27;20440;-70
2021/10/27 07:45:45;;;;;;;;;;;20.80;60.00;;;;;;4246110;27;19919;-68
2021/10/27 07:47:48;;;;;;;;;;;20.90;60.00;;;;;;4256710;27;19919;-72
2021/10/27 07:49:51;;;;;;;;;;;20.80;59.90;;;;;;4247829;27;19923;-66
2021/10/27 07:51:54;;;;;;;;;;;20.80;59.90;;;;;;4246868;27;19926;-70
2021/10/27 07:53:56;;;;;;;;;;;20.80;59.80;;;;;;4256937;27;19920;-67
2021/10/27 07:56:01;;;;;;;;;;;20.80;59.90;;;;;;4246159;28;19923;-67
2021/10/27 07:58:03;;;;;;;;;;;20.90;59.90;;;;;;4255805;27;20290;-73
2021/10/27 08:00:07;;;;;;;;;;;20.80;59.80;;;;;;4248365;27;19972;-65
2021/10/27 08:02:09;;;;;;;;;;;20.80;59.80;;;;;;4247533;27;20327;-73
2021/10/27 08:04:12;;;;;;;;;;;20.80;59.90;;;;;;4251248;27;19972;-71
2021/10/27 08:06:15;;;;;;;;;;;20.80;59.80;;;;;;4263035;27;19935;-71
2021/10/27 08:08:20;;;;;;;;;;;20.80;59.90;;;;;;4258724;27;19919;-73
2021/10/27 08:10:22;;;;;;;;;;;20.80;59.90;;;;;;4249000;27;19964;-70
2021/10/27 08:12:26;;;;;;;;;;;20.80;59.80;;;;;;4247127;27;20407;-68
2021/10/27 08:14:29;;;;;;;;;;;20.80;59.90;;;;;;4247453;27;19919;-71
2021/10/27 08:16:52;;;;;;;;;;;20.80;59.90;;;;;;4245943;27;20436;-68
2021/10/27 08:18:54;;;;;;;;;;;20.80;60.00;;;;;;4247521;27;19920;-70
2021/10/27 08:20:57;;;;;;;;;;;20.80;59.90;;;;;;4255074;27;19964;-74
2021/10/27 08:23:06;;;;;;;;;;;20.80;59.80;;;;;;4258265;27;19919;-67
2021/10/27 08:25:18;;;;;;;;;;;20.80;59.90;;;;;;4254929;27;20367;-74
2021/10/27 08:27:22;;;;;;;;;;;20.80;59.90;;;;;;4245670;28;19919;-64
2021/10/27 08:29:28;;;;;;;;;;;20.80;59.80;;;;;;4249722;27;20041;-65
2021/10/27 08:31:36;;;;;;;;;;;20.80;59.80;;;;;;4245853;28;19924;-70
2021/10/27 08:35:46;;;;;;;;;;;20.90;60.00;;;;;;4252941;27;19972;-72
2021/10/27 08:37:49;;;;;;;;;;;20.80;59.80;;;;;;4245952;27;20416;-65
2021/10/27 08:39:52;;;;;;;;;;;20.90;59.80;;;;;;4250253;27;19923;-66
2021/10/27 08:41:54;;;;;;;;;;;20.80;59.80;;;;;;4262644;27;19923;-71
2021/10/27 08:43:58;;;;;;;;;;;20.80;59.80;;;;;;4258037;27;19919;-71
2021/10/27 08:46:05;;;;;;;;;;;20.80;59.80;;;;;;4253638;27;20447;-68
2021/10/27 08:48:08;;;;;;;;;;;20.80;59.80;;;;;;4245453;27;20022;-71
2021/10/27 08:50:13;;;;;;;;;;;20.80;59.80;;;;;;4250033;27;19926;-65
2021/10/27 08:52:16;;;;;;;;;;;20.80;59.80;;;;;;4262628;27;19926;-68
2021/10/27 08:54:19;;;;;;;;;;;20.90;59.80;;;;;;4257784;27;19927;-67
2021/10/27 08:56:22;;;;;;;;;;;20.80;59.70;;;;;;4253063;27;19923;-65
2021/10/27 08:58:30;;;;;;;;;;;20.80;59.70;;;;;;4245397;28;19919;-64
2021/10/27 09:00:39;;;;;;;;;;;20.80;59.70;;;;;;4249601;27;20340;-66
2021/10/27 09:05:18;;;;;;;;;;;20.80;59.80;;;;;;4261195;27;19919;-73
2021/10/27 09:16:57;;;;;;;;;;;20.90;60.00;;;;;;4259644;27;20379;-65
2021/10/27 09:43:04;;;;;;;;;;;20.80;60.00;;;;;;4254222;27;19947;-64
2021/10/27 10:04:15;;;;;;;;;;;20.90;59.90;;;;;;4249929;27;19972;-76
2021/10/27 10:06:22;;;;;;;;;;;20.90;60.10;;;;;;4252443;27;19919;-72
2021/10/27 10:08:30;;;;;;;;;;;20.90;60.10;;;;;;4255540;27;19925;-75
2021/10/27 10:10:33;;;;;;;;;;;20.90;60.10;;;;;;4255720;27;19919;-73
2021/10/27 10:12:37;;;;;;;;;;;20.90;60.20;;;;;;4256177;27;19923;-73
2021/10/27 10:14:47;;;;;;;;;;;20.90;60.10;;;;;;4255549;27;19923;-75
2021/10/27 10:16:51;;;;;;;;;;;21.00;60.30;;;;;;4255584;27;19995;-68
2021/10/27 10:18:59;;;;;;;;;;;20.90;60.10;;;;;;4254392;27;19919;-69
2021/10/27 10:21:02;;;;;;;;;;;20.90;60.20;;;;;;4263028;27;20089;-72
2021/10/27 10:23:21;;;;;;;;;;;21.00;60.20;;;;;;4259762;27;19979;-72
2021/10/27 10:25:31;;;;;;;;;;;21.00;60.20;;;;;;4246851;27;19923;-67
2021/10/27 10:27:38;;;;;;;;;;;21.00;60.00;;;;;;4252776;27;19987;-69
2021/10/27 10:29:54;;;;;;;;;;;21.00;60.10;;;;;;4253219;27;19941;-75
2021/10/27 10:31:57;;;;;;;;;;;21.10;60.00;;;;;;4248283;27;19984;-69
2021/10/27 10:34:04;;;;;;;;;;;21.00;60.20;;;;;;4258640;27;19926;-69
2021/10/27 10:36:13;;;;;;;;;;;21.10;60.30;;;;;;4247295;27;19919;-73
2021/10/27 10:38:27;;;;;;;;;;;21.00;60.20;;;;;;4255620;27;19919;-75
2021/10/27 10:43:24;;;;;;;;;;;21.00;60.50;;;;;;4252430;27;19926;-73
2021/10/27 10:59:39;;;;;;;;;;;21.00;60.60;;;;;;4251470;27;19919;-73
2021/10/27 11:11:36;;;;;;;;;;;21.00;60.50;;;;;;4251104;27;19944;-73
2021/10/27 11:39:52;;;;;;;;;;;20.90;61.10;;;;;;4262104;27;20271;-76
2021/10/27 11:41:35;;;;;;;;;;;20.90;61.10;;;;;;4247227;27;19919;-76
2021/10/27 11:43:54;;;;;;;;;;;20.90;61.40;;;;;;4263965;27;19919;-74
2021/10/27 11:46:09;;;;;;;;;;;20.90;61.30;;;;;;4262181;27;19963;-76
2021/10/27 11:48:25;;;;;;;;;;;20.90;61.40;;;;;;4249870;27;19919;-77
2021/10/27 11:50:31;;;;;;;;;;;20.90;61.40;;;;;;4258886;27;19918;-76
2021/10/27 11:52:37;;;;;;;;;;;20.90;61.30;;;;;;4251523;27;20375;-71
2021/10/27 11:54:40;;;;;;;;;;;20.90;61.60;;;;;;4247706;27;19927;-75
2021/10/27 11:56:43;;;;;;;;;;;20.80;61.40;;;;;;4257493;27;19947;-76
2021/10/27 11:58:47;;;;;;;;;;;20.90;61.60;;;;;;4228758;28;19927;-75
2021/10/27 12:00:58;;;;;;;;;;;20.80;61.40;;;;;;4235216;27;19920;-73
2021/10/27 12:05:20;;;;;;;;;;;20.90;61.40;;;;;;4261012;27;20594;-73
2021/10/27 12:07:41;;;;;;;;;;;20.80;61.20;;;;;;4252387;27;19926;-75
2021/10/27 12:12:15;;;;;;;;;;;20.80;61.30;;;;;;4251829;27;19920;-71
2021/10/27 12:14:23;;;;;;;;;;;20.80;61.40;;;;;;4257720;27;20374;-70
2021/10/27 12:18:36;;;;;;;;;;;20.80;61.60;;;;;;4249817;27;19923;-75
2021/10/27 12:20:40;;;;;;;;;;;20.70;61.50;;;;;;4253560;27;19926;-73
2021/10/27 12:22:56;;;;;;;;;;;20.80;61.30;;;;;;4257127;27;20390;-75
2021/10/27 12:25:00;;;;;;;;;;;20.80;61.40;;;;;;4246537;28;19924;-70
2021/10/27 12:29:12;;;;;;;;;;;20.80;62.20;;;;;;4247675;27;19919;-74
2021/10/27 12:31:15;;;;;;;;;;;20.80;61.60;;;;;;4260194;27;19970;-72
2021/10/27 12:33:33;;;;;;;;;;;20.80;62.20;;;;;;4256833;27;20192;-70
2021/10/27 12:35:36;;;;;;;;;;;20.80;62.90;;;;;;4250289;27;19915;-70
2021/10/27 12:38:06;;;;;;;;;;;20.80;62.90;;;;;;4266955;27;19923;-67
2021/10/27 12:40:19;;;;;;;;;;;20.80;62.70;;;;;;4235200;27;19980;-72
2021/10/27 12:42:28;;;;;;;;;;;20.80;62.70;;;;;;4255591;27;20344;-71
2021/10/27 12:44:31;;;;;;;;;;;20.80;62.40;;;;;;4244096;27;19919;-73
2021/10/27 12:46:34;;;;;;;;;;;20.90;64.00;;;;;;4256594;27;20157;-68
2021/10/27 12:48:38;;;;;;;;;;;20.90;63.40;;;;;;4267165;27;19937;-70
2021/10/27 12:50:51;;;;;;;;;;;20.90;63.30;;;;;;4249483;27;20067;-74
2021/10/27 12:52:54;;;;;;;;;;;20.90;64.60;;;;;;4258856;27;19919;-74
2021/10/27 12:55:15;;;;;;;;;;;20.90;64.30;;;;;;4232773;27;19924;-71
2021/10/27 12:57:19;;;;;;;;;;;20.90;63.10;;;;;;4252343;27;20348;-68
2021/10/27 12:59:26;;;;;;;;;;;20.90;63.40;;;;;;4257317;27;20287;-73
2021/10/27 13:05:42;;;;;;;;;;;20.90;63.20;;;;;;4248676;27;19960;-66
2021/10/27 13:07:54;;;;;;;;;;;20.90;64.10;;;;;;4253589;27;19919;-71
2021/10/27 13:21:12;;;;;;;;;;;20.90;62.70;;;;;;4257632;27;19919;-69
2021/10/27 13:30:10;;;;;;;;;;;20.80;62.90;;;;;;4253829;27;20018;-70
2021/10/27 13:32:18;;;;;;;;;;;20.90;63.90;;;;;;4264608;27;20284;-73
2021/10/27 13:34:22;;;;;;;;;;;20.90;63.50;;;;;;4253624;27;20348;-73
2021/10/27 13:36:25;;;;;;;;;;;20.80;63.40;;;;;;4252515;27;20002;-67
2021/10/27 13:38:33;;;;;;;;;;;20.90;63.50;;;;;;4249504;27;19919;-66
2021/10/27 13:40:40;;;;;;;;;;;20.90;63.40;;;;;;4257421;27;19949;-67
2021/10/27 13:45:03;;;;;;;;;;;20.90;63.20;;;;;;4259395;27;19983;-72
2021/10/27 13:49:27;;;;;;;;;;;20.90;62.80;;;;;;4251017;27;19964;-74
2021/10/27 13:58:55;;;;;;;;;;;20.80;62.90;;;;;;4263207;27;19979;-67
2021/10/27 14:08:20;;;;;;;;;;;20.90;64.50;;;;;;4232300;27;20421;-73
2021/10/27 14:10:39;;;;;;;;;;;20.90;64.40;;;;;;4250312;27;20203;-73
2021/10/27 14:13:09;;;;;;;;;;;21.00;65.00;;;;;;4249891;27;19919;-74
2021/10/27 14:39:31;;;;;;;;;;;21.30;63.80;;;;;;4268528;27;19919;-71
2021/10/27 14:50:35;;;;;;;;;;;21.30;63.80;;;;;;4252486;27;19968;-75
2021/10/27 15:21:44;;;;;;;;;;;21.20;64.00;;;;;;4258325;27;20308;-69
2021/10/27 15:37:03;;;;;;;;;;;21.10;64.40;;;;;;4261611;27;19919;-74
2021/10/27 15:44:02;;;;;;;;;;;21.10;64.40;;;;;;4250109;27;20613;-69
2021/10/27 15:51:09;;;;;;;;;;;21.10;64.30;;;;;;4248136;27;20379;-72
2021/10/27 15:53:10;;;;;;;;;;;21.20;64.60;;;;;;4247367;27;20320;-69
2021/10/27 15:55:13;;;;;;;;;;;21.20;64.40;;;;;;4254050;27;19971;-72
2021/10/27 15:57:18;;;;;;;;;;;21.30;64.50;;;;;;4244990;27;19962;-74
2021/10/27 15:59:21;;;;;;;;;;;21.30;64.30;;;;;;4250912;27;19919;-71
2021/10/27 16:01:24;;;;;;;;;;;21.30;64.20;;;;;;4262080;27;20266;-72
2021/10/27 16:03:28;;;;;;;;;;;21.30;64.30;;;;;;4259742;27;19919;-73
2021/10/27 16:05:31;;;;;;;;;;;21.30;64.20;;;;;;4253683;27;20298;-72
2021/10/27 16:07:36;;;;;;;;;;;21.30;64.40;;;;;;4263228;27;20521;-73
2021/10/27 16:09:43;;;;;;;;;;;21.20;64.60;;;;;;4258829;27;19919;-72
2021/10/27 16:12:01;;;;;;;;;;;21.30;64.70;;;;;;4246837;27;19920;-69
2021/10/27 16:14:05;;;;;;;;;;;21.20;65.00;;;;;;4256983;27;19919;-71
2021/10/27 16:16:08;;;;;;;;;;;21.20;65.00;;;;;;4243706;27;19919;-71
2021/10/27 16:18:11;;;;;;;;;;;21.20;65.20;;;;;;4265744;27;19926;-73
2021/10/27 16:20:14;;;;;;;;;;;21.10;65.20;;;;;;4263035;27;19976;-67
2021/10/27 16:22:17;;;;;;;;;;;21.20;64.90;;;;;;4264825;27;19923;-68
2021/10/27 16:24:19;;;;;;;;;;;21.20;64.70;;;;;;4262028;27;19984;-65
2021/10/27 16:26:22;;;;;;;;;;;21.20;64.60;;;;;;4256875;27;19920;-70
2021/10/27 16:28:25;;;;;;;;;;;21.20;64.60;;;;;;4252733;27;19979;-73
2021/10/27 16:30:30;;;;;;;;;;;21.20;64.50;;;;;;4261601;27;20272;-70
2021/10/27 16:32:33;;;;;;;;;;;21.30;64.50;;;;;;4248597;27;19920;-69
2021/10/27 16:34:35;;;;;;;;;;;21.20;64.20;;;;;;4253283;27;19999;-69
2021/10/27 16:36:56;;;;;;;;;;;21.30;64.10;;;;;;4260002;27;19983;-72
2021/10/27 16:38:59;;;;;;;;;;;21.30;64.20;;;;;;4264320;27;19919;-68
2021/10/27 16:41:02;;;;;;;;;;;21.30;64.00;;;;;;4259853;27;19923;-68